Los Molinos, California
Current Conditions -  °F | °C
As of 8:54 AM on Sunday 23 Nov 2014 (Local Time) from KRBL Reporting Station
Clear Clear  
Wind Chill:   Ceiling: Unl
Heat Index:   Visibility: 10mi
Dew Point:   Wind: 7mph
Humidity: 74%   Direction: 350°N
Pressure: 30.37"   Gusts: NA
Location:  40.02°N, 122.1°W
Report Text: KRBL 231654Z AUTO 35006KT 10SM CLR 08/04 A3037 RMK AO2 SLP285 T00830039
Loading
Personal Weather Stations






























Interactive Weather Map New forecast layout! Learn more

10-Day Weather Forecast

Advertisements
Track Severe Weather on mobile